You are listening to:
KSDF Ground/Tower #1 - Louisville, Kentucky, United States

KSDF 210056Z 15004KT 10SM FEW060 19/13 A2992 RMK AO2 SLP131 T01890128

If stream does not start automatically press the play button